Latest Weather Observations for Hay Airport

IDN60801

Issued at 4:05 pm EDT Saturday 1 November 2014 (issued every 30 minutes, with the page automatically refreshed every 10 minutes)

About weather observations | Map of weather stations | Latest weather observations for NSW | Other Formats
Station Details ID: 075019 Name: HAY AIRPORT AWS Lat: -34.54 Lon: 144.83 Height: 92.0 m
Data from the previous 72 hours. | See also: Recent months for locations in New South Wales
Date/Time
EDT
Temp
°C
App
Temp
°C
Dew
Point
Rel
Hum
%
Delta-T
°C
Wind Press
QNH
hPa
Press
MSL
hPa
Rain
since 9 am
mm
Dir
 
Spd
km/h
Gust
km/h
Spd
kts
Gust
kts
01/04:00pm 21.3 11.2 1.6 27 9.1 WSW 44 59 24 32 1010.6 1010.4 0.0
01/03:49pm 21.3 10.8 1.6 27 9.1 W 46 65 25 35 1010.4 1010.2 0.0
01/03:30pm 20.9 10.9 2.2 29 8.7 WSW 44 57 24 31 1010.5 1010.3 0.0
01/03:14pm 22.6 12.3 2.7 27 9.5 WSW 46 65 25 35 1010.4 1010.2 0.0
01/03:00pm 21.8 12.0 3.5 30 8.8 WSW 44 57 24 31 1010.4 1010.2 0.0
01/02:43pm 21.1 11.1 2.4 29 8.8 WSW 44 63 24 34 1010.2 1009.9 0.0
01/02:30pm 20.9 10.9 2.2 29 8.7 WSW 44 56 24 30 1010.3 1010.0 0.0
01/02:12pm 20.9 11.6 2.7 30 8.6 WSW 41 61 22 33 1010.2 1009.9 0.0
01/02:00pm 20.3 10.9 2.2 30 8.4 WSW 41 57 22 31 1010.1 1009.8 0.0
01/01:35pm 20.5 11.0 4.1 34 7.9 W 43 61 23 33 1010.0 1009.7 0.0
01/01:30pm 20.9 10.9 4.5 34 8.0 W 46 61 25 33 1009.9 1009.6 0.0
01/01:00pm 20.7 11.6 7.0 41 7.0 WSW 44 57 24 31 1009.6 1009.3 0.0
01/12:35pm 18.8 10.8 9.0 53 5.1 WSW 41 61 22 33 1009.4 1009.1 0.0
01/12:30pm 20.6 13.4 10.7 53 5.4 WSW 39 52 21 28 1009.2 1008.9 0.0
01/12:00pm 19.1 11.8 11.7 62 4.1 WSW 41 50 22 27 1009.3 1009.0 0.0
01/11:30am 16.9 9.5 11.2 69 3.1 WSW 41 56 22 30 1009.3 1009.0 0.0
01/11:00am 17.0 10.2 11.9 72 2.8 WSW 39 48 21 26 1009.1 1008.8 0.0
01/10:30am 16.4 10.0 13.1 81 1.8 WSW 39 48 21 26 1008.9 1008.8 0.0
01/10:00am 15.9 10.4 13.6 86 1.3 WSW 35 43 19 23 1008.3 1008.2 0.0
01/09:30am 15.2 10.2 13.4 89 1.0 WSW 32 39 17 21 1007.6 1007.5 0.0
01/09:00am 14.9 10.0 13.6 92 0.7 WSW 32 46 17 25 1007.1 1006.9 -
01/08:30am 15.2 10.7 13.9 92 0.7 WSW 30 39 16 21 1006.0 1005.8 -
01/08:00am 15.4 12.0 13.8 90 0.9 W 24 33 13 18 1005.6 1005.4 -
01/07:30am 15.9 12.2 13.9 88 1.1 W 26 43 14 23 1005.4 1005.2 -
01/07:00am 19.6 16.1 10.9 57 4.8 W 20 32 11 17 1003.8 1003.6 -
01/06:30am 20.8 15.0 8.1 44 6.6 WSW 28 35 15 19 1003.8 1003.6 -
01/06:00am 21.4 15.8 5.3 35 8.0 W 24 30 13 16 1003.7 1003.5 -
01/05:30am 21.5 16.7 5.8 36 7.9 W 20 26 11 14 1003.0 1002.8 -
01/04:30am 22.5 17.1 6.3 35 8.3 WSW 24 28 13 15 1002.4 1002.2 -
01/04:00am 24.7 15.2 5.0 28 10.0 WSW 44 54 24 29 1001.6 1001.4 -
01/03:54am 24.8 15.4 4.5 27 10.2 W 43 54 23 29 1001.6 1001.4 -
01/03:30am 26.9 18.3 4.6 24 11.4 WNW 39 56 21 30 1000.9 1000.7 -
01/03:21am 26.0 17.6 1.3 20 11.8 NW 35 48 19 26 1000.9 1000.7 -
01/03:00am 25.7 - 0.4 19 11.9 - - - - - 998.5 998.4 -
01/02:00am 25.3 17.5 -0.7 18 12.0 N 30 39 16 21 998.9 998.8 0.0
01/01:30am 25.3 17.9 -0.7 18 11.9 N 28 35 15 19 999.4 999.3 0.0
01/01:00am 25.3 18.7 -0.7 18 12.0 N 24 30 13 16 1000.2 1000.0 0.0
01/12:30am 25.5 18.4 -1.3 17 12.1 N 26 32 14 17 1000.4 1000.2 0.0
01/12:00am 25.3 19.4 -0.7 18 12.0 N 20 24 11 13 1001.0 1000.8 0.0
 
Date/Time
EDT
Temp
°C
App
Temp
°C
Dew
Point
Rel
Hum
%
Delta-T
°C
Wind Press
QNH
hPa
Press
MSL
hPa
Rain
since 9 am
mm
Dir
 
Spd
km/h
Gust
km/h
Spd
kts
Gust
kts
31/11:30pm 26.3 20.3 -1.5 16 12.6 N 20 24 11 13 1001.2 1001.0 0.0
31/11:00pm 27.5 21.1 -1.4 15 13.3 N 22 28 12 15 1001.4 1001.2 0.0
31/10:30pm 28.2 21.4 -1.8 14 13.7 N 24 30 13 16 1001.6 1001.4 0.0
31/10:00pm 27.8 21.3 -2.1 14 13.7 N 22 28 12 15 1001.8 1001.6 0.0
31/09:30pm 28.0 22.1 -2.0 14 13.7 N 19 22 10 12 1001.6 1001.4 0.0
31/09:00pm 27.9 22.4 -2.0 14 13.7 N 17 20 9 11 1001.5 1001.3 0.0
31/08:30pm 27.6 22.3 -3.3 13 13.7 N 15 17 8 9 1001.4 1001.2 0.0
31/08:00pm 29.0 24.1 -3.2 12 14.6 NNW 13 15 7 8 1001.4 1001.2 0.0
31/07:30pm 32.4 26.8 -3.1 10 16.4 NW 17 20 9 11 1001.4 1001.2 0.0
31/07:00pm 34.4 27.8 -3.0 9 17.7 NW 22 30 12 16 1001.4 1001.2 0.0
31/06:30pm 35.4 27.6 -3.8 8 18.3 NW 28 39 15 21 1001.6 1001.4 0.0
31/06:00pm 36.1 28.7 -3.3 8 18.7 NNW 26 35 14 19 1001.8 1001.6 0.0
31/05:30pm 36.9 29.0 -4.5 7 19.3 NW 28 43 15 23 1001.9 1001.7 0.0
31/05:00pm 37.0 29.5 -4.4 7 19.5 NW 26 41 14 22 1002.2 1002.0 0.0
31/04:30pm 36.5 27.8 -4.8 7 19.1 NNW 32 50 17 27 1002.6 1002.4 0.0
31/04:23pm 37.1 29.2 -4.4 7 19.4 NNW 28 50 15 27 1002.6 1002.4 0.0
31/04:00pm 37.2 28.6 -4.3 7 19.6 WNW 32 44 17 24 1002.9 1002.7 0.0
31/03:30pm 36.4 27.9 -3.1 8 18.8 WNW 32 43 17 23 1003.3 1003.1 0.0
31/03:19pm 37.7 29.7 -2.2 8 19.4 NW 30 48 16 26 1003.4 1003.2 0.0
31/03:00pm 36.0 27.5 -3.4 8 18.7 N 32 44 17 24 1003.7 1003.5 0.0
31/02:30pm 36.5 27.5 -3.0 8 18.8 NNW 35 54 19 29 1004.1 1003.9 0.0
31/02:00pm 35.8 28.0 -3.5 8 18.6 NNW 28 52 15 28 1004.7 1004.5 0.0
31/01:58pm 36.7 29.0 -2.9 8 18.9 NNW 28 52 15 28 1004.7 1004.5 0.0
31/01:30pm 36.5 28.0 -3.0 8 18.8 NNW 32 44 17 24 1005.3 1005.1 0.0
31/01:00pm 35.0 27.0 -2.6 9 17.9 NNW 30 48 16 26 1005.9 1005.7 0.0
31/12:32pm 35.2 27.2 -2.4 9 18.0 NNW 30 50 16 27 1006.5 1006.3 0.0
31/12:30pm 35.3 27.7 -2.3 9 18.0 N 28 41 15 22 1006.6 1006.4 0.0
31/12:00pm 34.4 28.6 -0.3 11 17.1 N 20 28 11 15 1007.4 1007.3 0.0
31/11:30am 32.2 26.3 -0.8 12 15.8 N 20 26 11 14 1008.0 1007.9 0.0
31/11:00am 30.8 25.2 0.2 14 14.8 N 19 26 10 14 1008.7 1008.6 0.0
31/10:30am 29.7 25.4 1.2 16 13.9 NE 13 19 7 10 1009.1 1009.0 0.0
31/10:00am 28.5 23.8 1.1 17 13.3 E 15 20 8 11 1009.4 1009.3 0.0
31/09:30am 27.1 22.0 0.8 18 12.5 E 17 20 9 11 1009.7 1009.6 0.0
31/09:00am 26.3 21.7 1.6 20 11.9 E 15 20 8 11 1010.2 1010.1 -
31/08:30am 23.0 18.8 1.9 25 10.0 ESE 13 17 7 9 1010.4 1010.3 -
31/08:00am 20.6 16.4 1.5 28 8.8 ESE 13 17 7 9 1010.4 1010.3 -
31/07:30am 16.6 13.0 0.7 34 6.9 SE 9 11 5 6 1010.4 1010.3 -
31/07:00am 14.3 10.2 -0.2 37 6.1 ESE 11 13 6 7 1010.3 1010.2 -
31/06:30am 12.8 9.0 -1.1 38 5.6 ESE 9 11 5 6 1010.2 1010.1 -
31/06:00am 13.0 9.7 -1.3 37 5.8 SE 6 7 3 4 1010.3 1010.2 -
31/05:30am 13.3 9.1 -1.1 37 5.9 SE 11 11 6 6 1010.1 1010.0 -
31/05:00am 13.1 9.5 -2.0 35 6.0 ESE 7 9 4 5 1010.1 1010.0 -
31/04:30am 13.8 9.9 -1.4 35 6.2 SE 9 11 5 6 1009.9 1009.8 -
31/04:00am 14.7 10.5 -1.0 34 6.5 E 11 13 6 7 1009.9 1009.8 -
31/03:30am 15.7 11.5 -0.9 32 7.0 E 11 13 6 7 1010.2 1010.1 -
31/03:00am 16.7 12.6 -0.5 31 7.3 E 11 13 6 7 1010.3 1010.2 -
31/02:30am 15.4 11.2 -0.8 33 6.8 E 11 13 6 7 1010.5 1010.4 -
31/02:00am 16.3 12.9 -0.4 32 7.1 ESE 7 9 4 5 1010.9 1010.8 -
31/01:30am 17.3 13.6 0.0 31 7.5 E 9 11 5 6 1011.3 1011.1 -
31/01:00am 17.9 13.8 0.1 30 7.8 ESE 11 13 6 7 1011.5 1011.3 -
31/12:30am 17.6 14.0 0.7 32 7.4 ESE 9 11 5 6 1011.9 1011.7 -
31/12:00am 18.4 15.1 0.1 29 8.0 ESE 7 7 4 4 1012.2 1012.0 0.0
 
Date/Time
EDT
Temp
°C
App
Temp
°C
Dew
Point
Rel
Hum
%
Delta-T
°C
Wind Press
QNH
hPa
Press
MSL
hPa
Rain
since 9 am
mm
Dir
 
Spd
km/h
Gust
km/h
Spd
kts
Gust
kts
30/11:30pm 19.4 15.8 0.4 28 8.5 SSE 9 11 5 6 1012.2 1012.0 0.0
30/11:00pm 20.2 16.3 1.1 28 8.7 SSE 11 13 6 7 1012.2 1012.0 0.0
30/10:30pm 21.6 17.3 1.3 26 9.4 S 13 17 7 9 1012.3 1012.1 0.0
30/10:00pm 22.6 18.4 1.6 25 9.8 S 13 15 7 8 1012.2 1012.0 0.0
30/09:30pm 23.9 19.4 2.1 24 10.4 S 15 20 8 11 1011.8 1011.6 0.0
30/09:00pm 24.6 20.0 1.5 22 11.0 S 15 17 8 9 1011.4 1011.2 0.0
30/08:30pm 26.1 21.2 2.1 21 11.6 SSW 17 20 9 11 1011.1 1011.0 0.0
30/08:00pm 27.0 22.5 2.1 20 12.1 SSW 15 17 8 9 1010.7 1010.6 0.0
30/07:30pm 29.4 24.1 1.8 17 13.6 SW 19 26 10 14 1010.5 1010.4 0.0
30/07:00pm 30.7 25.7 1.1 15 14.5 SSW 17 20 9 11 1010.5 1010.4 0.0
30/06:30pm 31.7 25.9 -0.1 13 15.4 WSW 20 28 11 15 1010.5 1010.4 0.0
30/06:00pm 32.1 26.9 0.2 13 15.6 WSW 17 24 9 13 1010.6 1010.5 0.0
30/05:30pm 32.3 25.7 -0.7 12 15.9 WSW 24 32 13 17 1010.6 1010.5 0.0
30/05:00pm 32.5 26.3 -0.5 12 16.0 W 22 37 12 20 1010.8 1010.7 0.0
30/04:30pm 32.4 24.4 0.5 13 15.7 W 32 35 17 19 1010.8 1010.7 0.0
30/04:00pm 32.4 25.6 0.5 13 15.7 W 26 37 14 20 1011.1 1011.0 0.0
30/03:30pm 32.0 25.3 1.2 14 15.3 W 26 43 14 23 1011.6 1011.4 0.0
30/03:00pm 32.3 25.2 1.4 14 15.4 NW 28 35 15 19 1012.1 1011.9 0.0
30/02:30pm 31.5 25.6 1.8 15 14.8 WNW 22 35 12 19 1012.6 1012.4 0.0
30/02:00pm 31.3 25.4 1.6 15 14.8 W 22 35 12 19 1012.8 1012.6 0.0
30/01:30pm 30.6 24.4 1.9 16 14.3 WNW 24 37 13 20 1013.2 1013.0 0.0
30/01:00pm 30.8 24.6 2.1 16 14.3 WNW 24 43 13 23 1013.5 1013.3 0.0
30/12:30pm 29.6 23.0 2.0 17 13.7 WNW 26 39 14 21 1014.0 1013.8 0.0
30/12:00pm 29.7 23.5 2.1 17 13.7 WNW 24 35 13 19 1014.5 1014.3 0.0
30/11:30am 28.9 22.7 2.2 18 13.2 WNW 24 43 13 23 1014.7 1014.5 0.0
30/11:00am 28.2 22.9 3.1 20 12.5 WNW 20 26 11 14 1014.9 1014.7 0.0
30/10:30am 27.4 22.8 3.8 22 11.9 NNW 17 33 9 18 1015.0 1014.8 0.0
30/10:00am 26.6 22.8 3.8 23 11.4 NW 13 20 7 11 1015.1 1014.9 0.0
30/09:30am 25.5 21.2 3.5 24 10.9 N 15 22 8 12 1015.0 1014.8 0.0
30/09:00am 23.8 20.1 4.2 28 9.7 N 13 17 7 9 1015.3 1015.1 0.0
30/08:30am 22.4 19.0 4.0 30 9.0 N 11 15 6 8 1015.4 1015.2 0.0
30/08:00am 20.1 16.6 3.3 33 8.0 N 11 15 6 8 1015.0 1014.8 0.0
30/07:30am 18.8 16.1 3.8 37 7.1 N 7 9 4 5 1014.7 1014.5 0.0
30/07:00am 14.0 11.1 2.6 46 5.1 NNE 7 11 4 6 1014.5 1014.3 0.0
30/06:30am 14.2 10.6 3.1 47 5.0 NNE 11 13 6 7 1014.1 1013.9 0.0
30/06:00am 13.0 9.9 3.7 53 4.2 NNE 9 11 5 6 1013.9 1013.7 0.0
30/05:30am 12.9 10.8 3.8 54 4.1 NE 4 11 2 6 1013.9 1013.7 0.0
30/05:00am 12.8 11.5 4.0 55 4.0 CALM 0 0 0 0 1014.0 1013.8 0.0
30/04:30am 11.7 10.1 2.7 54 3.9 CALM 0 0 0 0 1013.9 1013.7 0.0
30/04:00am 11.9 10.2 2.1 51 4.2 CALM 0 0 0 0 1014.2 1014.0 0.0
30/03:30am 13.1 11.6 3.2 51 4.4 CALM 0 0 0 0 1014.3 1014.1 0.0
30/03:00am 13.9 12.3 2.2 45 5.2 CALM 0 0 0 0 1014.5 1014.3 0.0
30/02:30am 14.2 12.5 1.8 43 5.4 CALM 0 0 0 0 1014.7 1014.5 0.0
30/02:00am 14.9 13.0 2.8 44 5.4 NW 2 6 1 3 1014.7 1014.5 0.0
30/01:30am 15.3 13.8 3.1 44 5.5 CALM 0 0 0 0 1015.0 1014.8 0.0
30/01:00am 15.2 13.7 3.0 44 5.5 CALM 0 0 0 0 1015.3 1015.1 0.0
30/12:30am 15.9 14.5 3.7 44 5.6 CALM 0 0 0 0 1015.3 1015.1 0.0
30/12:00am 15.8 14.2 2.2 40 6.1 CALM 0 0 0 0 1015.5 1015.3 0.0
 
Date/Time
EDT
Temp
°C
App
Temp
°C
Dew
Point
Rel
Hum
%
Delta-T
°C
Wind Press
QNH
hPa
Press
MSL
hPa
Rain
since 9 am
mm
Dir
 
Spd
km/h
Gust
km/h
Spd
kts
Gust
kts
29/11:30pm 16.4 14.7 1.7 37 6.5 CALM 0 0 0 0 1015.4 1015.2 0.0
29/11:00pm 17.0 14.2 2.2 37 6.7 SW 6 7 3 4 1015.6 1015.4 0.0
29/10:30pm 18.2 15.4 2.9 36 7.1 SW 7 11 4 6 1015.7 1015.5 0.0
29/10:00pm 19.0 16.1 2.8 34 7.5 W 7 7 4 4 1015.8 1015.6 0.0
29/09:30pm 18.8 15.7 1.3 31 7.9 W 7 9 4 5 1015.6 1015.4 0.0
29/09:00pm 19.8 16.8 2.2 31 8.1 W 7 9 4 5 1015.5 1015.3 0.0
29/08:30pm 21.9 18.5 2.1 27 9.3 WSW 9 13 5 7 1015.3 1015.1 0.0
29/08:00pm 23.5 19.4 2.4 25 10.1 WSW 13 17 7 9 1015.2 1015.0 0.0
29/07:30pm 25.8 21.5 3.1 23 11.2 W 15 20 8 11 1014.7 1014.5 0.0
29/07:00pm 26.8 23.2 2.7 21 11.8 WNW 11 19 6 10 1014.5 1014.3 0.0
29/06:30pm 27.2 23.2 3.0 21 12.0 WNW 13 20 7 11 1014.6 1014.4 0.0
29/06:00pm 27.7 23.0 3.4 21 12.2 NW 17 22 9 12 1014.6 1014.4 0.0
29/05:30pm 27.6 24.9 2.6 20 12.3 W 6 17 3 9 1014.6 1014.4 0.0
29/05:00pm 26.8 23.6 3.3 22 11.7 WNW 9 17 5 9 1014.8 1014.6 0.0
29/04:30pm 26.1 22.1 2.7 22 11.5 NW 13 26 7 14 1015.0 1014.8 0.0

Other Formats:

Comma delimited format used in spreadsheet applications
http://www.bom.gov.au/fwo/IDN60801/IDN60801.94702.axf

JavaScript Object Notation format (JSON) in row-major order
http://www.bom.gov.au/fwo/IDN60801/IDN60801.94702.json